createdAt,value
2023-02-28T00:00:33.576Z,-2.72
2023-02-28T00:03:00.101Z,-2.67
2023-02-28T00:05:28.114Z,-2.76
2023-02-28T00:07:55.229Z,-2.80
2023-02-28T00:10:25.004Z,-2.67
2023-02-28T00:12:52.995Z,-2.75
2023-02-28T00:15:19.715Z,-2.85
2023-02-28T00:17:46.594Z,-2.96
2023-02-28T00:20:14.260Z,-2.92
2023-02-28T00:22:43.274Z,-3.02
2023-02-28T00:25:11.554Z,-2.94
2023-02-28T00:27:40.140Z,-2.99
2023-02-28T00:30:08.033Z,-2.93
2023-02-28T00:32:35.538Z,-2.99
2023-02-28T00:35:03.282Z,-2.97
2023-02-28T00:37:29.922Z,-3.05
2023-02-28T00:39:56.601Z,-3.03
2023-02-28T00:42:23.779Z,-3.11
2023-02-28T00:44:50.213Z,-3.12
2023-02-28T00:47:16.947Z,-3.14
2023-02-28T00:49:43.854Z,-3.07
2023-02-28T00:52:10.726Z,-3.16
2023-02-28T00:54:37.227Z,-3.25
2023-02-28T00:57:03.785Z,-3.17
2023-02-28T00:59:31.882Z,-3.32
2023-02-28T01:01:58.862Z,-3.21
2023-02-28T01:04:25.453Z,-3.34
2023-02-28T01:06:51.983Z,-3.24
2023-02-28T01:09:18.446Z,-3.19
2023-02-28T01:11:45.126Z,-3.24
2023-02-28T01:14:17.156Z,-3.36
2023-02-28T01:16:45.809Z,-3.37
2023-02-28T01:19:12.273Z,-3.33
2023-02-28T01:21:38.923Z,-3.30
2023-02-28T01:24:06.333Z,-3.34
2023-02-28T01:26:32.877Z,-3.32
2023-02-28T01:28:59.697Z,-3.38
2023-02-28T01:31:27.199Z,-3.44
2023-02-28T01:33:54.117Z,-3.47
2023-02-28T01:36:24.598Z,-3.50
2023-02-28T01:38:51.625Z,-3.50
2023-02-28T01:41:32.089Z,-3.53
2023-02-28T01:44:28.480Z,-3.52
2023-02-28T01:46:56.141Z,-3.53
2023-02-28T01:49:22.843Z,-3.50
2023-02-28T01:51:57.133Z,-3.58
2023-02-28T01:54:30.307Z,-3.60
2023-02-28T01:57:06.896Z,-3.64
2023-02-28T01:59:41.495Z,-3.64
2023-02-28T02:02:08.224Z,-3.59
2023-02-28T02:05:02.624Z,-3.75
2023-02-28T02:07:34.853Z,-3.75
2023-02-28T02:10:10.924Z,-3.80
2023-02-28T02:12:49.567Z,-3.69
2023-02-28T02:15:57.354Z,-3.63
2023-02-28T02:18:46.605Z,-3.59
2023-02-28T02:21:16.105Z,-3.55
2023-02-28T02:24:00.598Z,-3.49
2023-02-28T02:26:45.441Z,-3.46
2023-02-28T02:29:39.783Z,-3.53
2023-02-28T02:32:41.674Z,-3.48
2023-02-28T02:35:30.593Z,-3.42
2023-02-28T02:38:17.475Z,-3.47
2023-02-28T02:40:56.378Z,-3.41
2023-02-28T02:43:36.868Z,-3.61
2023-02-28T02:46:10.449Z,-3.66
2023-02-28T02:48:41.494Z,-3.67
2023-02-28T02:51:15.200Z,-3.69
2023-02-28T02:53:50.236Z,-3.70
2023-02-28T02:56:20.945Z,-3.77
2023-02-28T02:58:50.459Z,-3.83
2023-02-28T03:01:28.748Z,-3.74
2023-02-28T03:04:02.634Z,-3.70
2023-02-28T03:06:29.246Z,-3.82
2023-02-28T03:08:55.746Z,-3.80
2023-02-28T03:11:23.078Z,-3.81
2023-02-28T03:14:31.588Z,-3.92
2023-02-28T03:17:04.228Z,-3.95
2023-02-28T03:19:52.082Z,-3.88
2023-02-28T03:22:53.164Z,-3.92
2023-02-28T03:25:32.911Z,-3.93
2023-02-28T03:28:22.983Z,-4.02
2023-02-28T03:30:55.135Z,-4.00
2023-02-28T03:33:28.120Z,-3.98
2023-02-28T03:36:00.360Z,-3.91
2023-02-28T03:38:49.680Z,-3.98
2023-02-28T03:41:33.235Z,-3.89
2023-02-28T03:44:07.309Z,-3.96
2023-02-28T03:46:38.415Z,-4.01
2023-02-28T03:49:15.482Z,-3.94
2023-02-28T03:51:43.723Z,-4.09
2023-02-28T03:54:17.012Z,-3.93
2023-02-28T03:56:55.199Z,-3.95
2023-02-28T03:59:35.407Z,-4.04
2023-02-28T04:02:02.314Z,-4.09
2023-02-28T04:04:29.379Z,-3.99
2023-02-28T04:07:04.310Z,-3.96
2023-02-28T04:09:30.823Z,-3.96
2023-02-28T04:11:57.338Z,-3.92
2023-02-28T04:14:25.308Z,-3.93
2023-02-28T04:16:52.127Z,-4.01
2023-02-28T04:19:18.963Z,-4.03
2023-02-28T04:21:48.624Z,-4.04
2023-02-28T04:24:18.542Z,-4.02
2023-02-28T04:26:47.640Z,-3.99
2023-02-28T04:29:19.019Z,-4.04
2023-02-28T04:31:45.607Z,-4.02
2023-02-28T04:34:12.211Z,-4.01
2023-02-28T04:36:38.668Z,-4.06
2023-02-28T04:39:05.136Z,-4.07
2023-02-28T04:41:32.792Z,-4.13
2023-02-28T04:43:59.798Z,-4.10
2023-02-28T04:46:26.580Z,-4.09
2023-02-28T04:48:54.590Z,-4.15
2023-02-28T04:51:21.094Z,-4.14
2023-02-28T04:53:48.995Z,-4.07
2023-02-28T04:56:17.701Z,-4.08
2023-02-28T04:58:44.716Z,-4.11
2023-02-28T05:01:28.011Z,-4.19
2023-02-28T05:03:56.276Z,-4.11
2023-02-28T05:06:24.965Z,-4.01
2023-02-28T05:08:52.172Z,-4.06
2023-02-28T05:11:27.375Z,-4.10
2023-02-28T05:13:55.050Z,-4.08
2023-02-28T05:16:22.153Z,-4.13
2023-02-28T05:18:48.753Z,-4.07
2023-02-28T05:21:29.461Z,-4.04
2023-02-28T05:23:57.687Z,-4.11
2023-02-28T05:26:25.095Z,-4.12
2023-02-28T05:28:51.680Z,-4.10
2023-02-28T05:31:18.234Z,-4.14
2023-02-28T05:33:44.836Z,-4.12
2023-02-28T05:36:11.530Z,-4.06
2023-02-28T05:38:39.029Z,-4.12
2023-02-28T05:41:07.730Z,-4.21
2023-02-28T05:43:34.373Z,-4.23
2023-02-28T05:46:06.622Z,-4.22
2023-02-28T05:48:35.444Z,-4.15
2023-02-28T05:51:03.458Z,-4.18
2023-02-28T05:53:30.465Z,-4.20
2023-02-28T05:55:57.008Z,-4.19
2023-02-28T05:58:24.229Z,-4.26
2023-02-28T06:00:50.693Z,-4.17
2023-02-28T06:03:17.241Z,-4.23
2023-02-28T06:05:43.714Z,-4.21
2023-02-28T06:08:10.237Z,-4.22
2023-02-28T06:10:36.747Z,-4.14
2023-02-28T06:13:06.540Z,-4.22
2023-02-28T06:15:33.490Z,-4.09
2023-02-28T06:18:00.036Z,-4.12
2023-02-28T06:20:30.170Z,-4.04
2023-02-28T06:22:59.430Z,-4.04
2023-02-28T06:25:27.269Z,-3.91
2023-02-28T06:27:54.776Z,-4.00
2023-02-28T06:30:26.134Z,-3.93
2023-02-28T06:32:53.039Z,-3.85
2023-02-28T06:35:19.704Z,-3.91
2023-02-28T06:37:48.278Z,-3.84
2023-02-28T06:40:15.811Z,-3.83
2023-02-28T06:42:42.355Z,-3.68
2023-02-28T06:45:10.286Z,-3.61
2023-02-28T06:47:39.089Z,-3.68
2023-02-28T06:50:06.550Z,-3.61
2023-02-28T06:52:33.266Z,-3.53
2023-02-28T06:55:02.861Z,-3.55
2023-02-28T06:57:34.336Z,-3.45
2023-02-28T07:00:01.876Z,-3.30
2023-02-28T07:02:28.852Z,-3.27
2023-02-28T07:04:55.577Z,-3.29
2023-02-28T07:07:22.160Z,-3.24
2023-02-28T07:09:48.614Z,-3.39
2023-02-28T07:12:15.053Z,-3.23
2023-02-28T07:14:41.558Z,-3.49
2023-02-28T07:17:09.596Z,-3.58
2023-02-28T07:19:36.050Z,-3.48
2023-02-28T07:22:03.834Z,-3.45
2023-02-28T07:24:30.588Z,-3.40
2023-02-28T07:26:57.687Z,-3.30
2023-02-28T07:29:24.176Z,-3.03
2023-02-28T07:31:53.964Z,-2.52
2023-02-28T07:34:21.236Z,-2.55
2023-02-28T07:36:47.848Z,-2.68
2023-02-28T07:39:14.406Z,-2.68
2023-02-28T07:41:44.367Z,-2.50
2023-02-28T07:44:11.931Z,-2.21
2023-02-28T07:46:38.930Z,-2.39
2023-02-28T07:49:06.709Z,-2.11
2023-02-28T07:51:33.227Z,-2.44
2023-02-28T07:53:59.737Z,-2.22
2023-02-28T07:56:26.265Z,-2.35
2023-02-28T07:58:52.756Z,-2.15
2023-02-28T08:01:20.425Z,-2.02
2023-02-28T08:03:46.941Z,-2.01
2023-02-28T08:06:19.996Z,-1.87
2023-02-28T08:08:46.836Z,-1.48
2023-02-28T08:11:13.796Z,-1.38
2023-02-28T08:13:40.426Z,-1.27
2023-02-28T08:16:07.258Z,-0.58
2023-02-28T08:18:34.298Z,0.07
2023-02-28T08:21:01.056Z,0.40
2023-02-28T08:23:27.535Z,-0.32
2023-02-28T08:25:57.800Z,-0.83
2023-02-28T08:28:27.029Z,-0.44
2023-02-28T08:30:54.694Z,-0.81
2023-02-28T08:33:21.711Z,-0.58
2023-02-28T08:35:48.218Z,-0.14
2023-02-28T08:38:14.668Z,-0.46
2023-02-28T08:40:41.676Z,-1.12
2023-02-28T08:43:08.164Z,-1.16
2023-02-28T08:45:34.673Z,-1.20
2023-02-28T08:48:01.167Z,-1.08
2023-02-28T08:50:27.678Z,-0.77
2023-02-28T08:52:54.116Z,-0.04
2023-02-28T08:55:20.595Z,0.17
2023-02-28T08:57:47.026Z,0.51
2023-02-28T09:00:14.554Z,0.74
2023-02-28T09:02:43.663Z,0.69
2023-02-28T09:05:11.081Z,0.61
2023-02-28T09:07:37.596Z,0.19
2023-02-28T09:10:04.608Z,0.28
2023-02-28T09:12:35.790Z,0.56
2023-02-28T09:15:03.247Z,0.92
2023-02-28T09:17:30.903Z,0.61
2023-02-28T09:19:58.021Z,1.26
2023-02-28T09:22:24.869Z,1.04
2023-02-28T09:24:51.359Z,0.96
2023-02-28T09:27:17.950Z,1.31
2023-02-28T09:29:44.584Z,1.01
2023-02-28T09:32:11.217Z,1.31
2023-02-28T09:34:39.199Z,1.18
2023-02-28T09:37:05.801Z,1.85
2023-02-28T09:39:32.791Z,1.84
2023-02-28T09:41:59.720Z,2.25
2023-02-28T09:44:32.619Z,2.22
2023-02-28T09:47:06.264Z,2.32
2023-02-28T09:49:39.929Z,2.64
2023-02-28T09:52:18.141Z,3.34
2023-02-28T09:54:44.626Z,4.66
2023-02-28T09:57:48.048Z,5.21
2023-02-28T10:00:19.090Z,3.78
2023-02-28T10:03:13.253Z,3.79
2023-02-28T10:05:44.601Z,3.41
2023-02-28T10:08:16.986Z,3.30
2023-02-28T10:10:47.830Z,2.71
2023-02-28T10:13:26.600Z,3.42
2023-02-28T10:16:04.912Z,4.56
2023-02-28T10:18:42.517Z,4.89
2023-02-28T10:21:21.855Z,4.62
2023-02-28T10:23:49.554Z,4.17
2023-02-28T10:26:19.002Z,5.22
2023-02-28T10:28:46.214Z,4.29
2023-02-28T10:31:18.908Z,2.89
2023-02-28T10:33:45.790Z,4.48
2023-02-28T10:36:17.489Z,5.85
2023-02-28T10:38:46.261Z,5.46
2023-02-28T10:41:18.293Z,4.57
2023-02-28T10:43:48.496Z,5.27
2023-02-28T10:46:26.585Z,6.22
2023-02-28T10:49:06.161Z,5.07
2023-02-28T10:51:40.980Z,4.16
2023-02-28T10:54:17.482Z,5.07
2023-02-28T10:56:43.931Z,5.66
2023-02-28T10:59:16.503Z,5.94
2023-02-28T11:01:53.810Z,6.31
2023-02-28T11:04:23.218Z,6.02
2023-02-28T11:07:23.144Z,6.61
2023-02-28T11:09:56.339Z,5.44
2023-02-28T11:12:46.844Z,5.82
2023-02-28T11:15:34.612Z,3.64
2023-02-28T11:18:05.925Z,5.22
2023-02-28T11:20:34.521Z,5.46
2023-02-28T11:23:03.922Z,4.97
2023-02-28T11:25:34.531Z,6.00
2023-02-28T11:28:05.606Z,7.47
2023-02-28T11:30:38.519Z,6.80
2023-02-28T11:33:28.641Z,5.04
2023-02-28T11:36:02.507Z,6.00
2023-02-28T11:38:29.088Z,4.47
2023-02-28T11:41:13.243Z,5.54
2023-02-28T11:44:11.924Z,6.22
2023-02-28T11:46:48.859Z,5.20
2023-02-28T11:49:33.131Z,6.60
2023-02-28T11:52:35.371Z,5.56
2023-02-28T11:55:18.771Z,6.00
2023-02-28T11:57:45.143Z,6.61
2023-02-28T12:00:31.166Z,7.04
2023-02-28T12:03:19.031Z,7.17
2023-02-28T12:05:50.696Z,6.87
2023-02-28T12:08:46.232Z,6.78
2023-02-28T12:11:21.878Z,8.17
2023-02-28T12:13:58.778Z,8.95
2023-02-28T12:16:34.129Z,9.03
2023-02-28T12:19:22.601Z,9.60
2023-02-28T12:21:58.259Z,9.09
2023-02-28T12:24:36.369Z,8.99
2023-02-28T12:27:07.211Z,8.16
2023-02-28T12:29:45.652Z,5.61
2023-02-28T12:32:24.761Z,6.51
2023-02-28T12:35:09.554Z,5.54
2023-02-28T12:37:42.039Z,5.62
2023-02-28T12:40:12.678Z,5.93
2023-02-28T12:42:47.143Z,6.04
2023-02-28T12:45:21.198Z,6.45
2023-02-28T12:47:53.841Z,7.47
2023-02-28T12:50:20.964Z,7.76
2023-02-28T12:53:07.761Z,6.61
2023-02-28T12:55:52.696Z,6.45
2023-02-28T12:58:25.249Z,7.24
2023-02-28T13:01:29.767Z,7.32
2023-02-28T13:04:24.299Z,5.62
2023-02-28T13:07:18.722Z,6.38
2023-02-28T13:10:00.599Z,4.57
2023-02-28T13:12:27.894Z,3.86
2023-02-28T13:15:22.115Z,4.98
2023-02-28T13:17:54.288Z,4.97
2023-02-28T13:20:24.928Z,4.66
2023-02-28T13:22:54.346Z,4.43
2023-02-28T13:25:23.501Z,4.03
2023-02-28T13:27:57.126Z,4.22
2023-02-28T13:30:59.527Z,4.22
2023-02-28T13:33:31.385Z,3.84
2023-02-28T13:36:31.350Z,3.96
2023-02-28T13:39:02.613Z,4.11
2023-02-28T13:41:31.919Z,4.50
2023-02-28T13:44:12.654Z,3.94
2023-02-28T13:46:48.292Z,3.80
2023-02-28T13:49:26.685Z,3.82
2023-02-28T13:51:55.986Z,4.07
2023-02-28T13:54:31.592Z,4.05
2023-02-28T13:57:05.311Z,4.06
2023-02-28T13:59:51.281Z,3.60
2023-02-28T14:02:41.941Z,3.35
2023-02-28T14:05:27.077Z,3.38
2023-02-28T14:08:05.373Z,3.13
2023-02-28T14:10:35.651Z,3.40
2023-02-28T14:13:14.592Z,3.29
2023-02-28T14:15:44.047Z,3.35
2023-02-28T14:18:34.505Z,3.14
2023-02-28T14:21:33.508Z,3.01
2023-02-28T14:24:21.249Z,3.12
2023-02-28T14:27:26.247Z,3.17
2023-02-28T14:30:07.806Z,3.38
2023-02-28T14:32:55.383Z,3.29
2023-02-28T14:35:43.071Z,3.51
2023-02-28T14:38:19.609Z,3.05
2023-02-28T14:40:48.374Z,3.03
2023-02-28T14:43:23.549Z,2.84
2023-02-28T14:45:56.724Z,2.95
2023-02-28T14:48:26.073Z,2.76
2023-02-28T14:50:56.008Z,2.62
2023-02-28T14:53:26.163Z,2.68
2023-02-28T14:55:53.758Z,2.64
2023-02-28T14:58:32.444Z,2.41
2023-02-28T15:01:01.490Z,2.61
2023-02-28T15:03:40.396Z,2.79
2023-02-28T15:06:15.565Z,2.66
2023-02-28T15:08:42.095Z,2.56
2023-02-28T15:11:24.977Z,2.43
2023-02-28T15:13:57.351Z,2.51
2023-02-28T15:16:32.633Z,2.43
2023-02-28T15:19:02.535Z,2.58
2023-02-28T15:21:31.210Z,2.38
2023-02-28T15:24:04.257Z,2.37
2023-02-28T15:26:34.502Z,2.52
2023-02-28T15:29:05.691Z,2.45
2023-02-28T15:31:56.159Z,2.26
2023-02-28T15:34:42.553Z,2.29
2023-02-28T15:37:54.608Z,2.29
2023-02-28T15:40:28.232Z,2.13
2023-02-28T15:43:10.368Z,2.17
2023-02-28T15:45:47.121Z,2.13
2023-02-28T15:48:28.050Z,2.20
2023-02-28T15:51:09.438Z,2.10
2023-02-28T15:53:48.492Z,1.95
2023-02-28T15:56:28.871Z,2.05
2023-02-28T15:59:04.125Z,2.09
2023-02-28T16:01:33.874Z,1.94
2023-02-28T16:04:09.819Z,1.85
2023-02-28T16:06:59.634Z,1.86
2023-02-28T16:09:28.225Z,1.82
2023-02-28T16:11:58.107Z,1.81
2023-02-28T16:14:28.467Z,1.73
2023-02-28T16:16:58.139Z,1.80
2023-02-28T16:19:24.928Z,1.70
2023-02-28T16:21:52.081Z,1.63
2023-02-28T16:24:18.633Z,1.69
2023-02-28T16:26:49.139Z,1.63
2023-02-28T16:29:42.684Z,1.52
2023-02-28T16:32:09.240Z,1.53
2023-02-28T16:34:35.894Z,1.52
2023-02-28T16:37:02.363Z,1.45
2023-02-28T16:39:28.885Z,1.35
2023-02-28T16:41:55.380Z,1.42
2023-02-28T16:44:34.806Z,1.42
2023-02-28T16:47:02.619Z,1.23
2023-02-28T16:49:29.354Z,1.26
2023-02-28T16:51:55.924Z,1.21
2023-02-28T16:54:22.458Z,1.18
2023-02-28T16:56:49.574Z,1.19
2023-02-28T16:59:20.616Z,1.08
2023-02-28T17:01:47.173Z,1.02
2023-02-28T17:04:15.140Z,1.03
2023-02-28T17:06:41.798Z,0.89
2023-02-28T17:09:21.026Z,0.83
2023-02-28T17:11:48.935Z,0.81
2023-02-28T17:14:16.628Z,0.82
2023-02-28T17:16:43.824Z,0.77
2023-02-28T17:19:13.895Z,0.59
2023-02-28T17:21:42.694Z,0.64
2023-02-28T17:24:16.584Z,0.64
2023-02-28T17:26:45.875Z,0.56
2023-02-28T17:29:21.540Z,0.50
2023-02-28T17:31:48.152Z,0.53
2023-02-28T17:34:19.329Z,0.55
2023-02-28T17:36:46.978Z,0.52
2023-02-28T17:39:15.084Z,0.57
2023-02-28T17:41:44.334Z,0.51
2023-02-28T17:44:10.795Z,0.37
2023-02-28T17:46:37.793Z,0.30
2023-02-28T17:49:04.332Z,0.19
2023-02-28T17:51:30.846Z,0.19
2023-02-28T17:53:57.324Z,0.17
2023-02-28T17:56:26.277Z,0.09
2023-02-28T17:58:55.243Z,0.19
2023-02-28T18:01:22.584Z,0.08
2023-02-28T18:03:49.391Z,-0.02
2023-02-28T18:06:25.411Z,0.01
2023-02-28T18:08:52.609Z,-0.06
2023-02-28T18:11:20.496Z,-0.16
2023-02-28T18:13:48.867Z,-0.34
2023-02-28T18:16:16.396Z,-0.46
2023-02-28T18:18:43.842Z,-0.39
2023-02-28T18:21:15.850Z,-0.32
2023-02-28T18:23:48.170Z,-0.37
2023-02-28T18:26:15.994Z,-0.34
2023-02-28T18:28:44.436Z,-0.51
2023-02-28T18:31:20.717Z,-0.45
2023-02-28T18:33:52.155Z,-0.61
2023-02-28T18:36:20.844Z,-0.63
2023-02-28T18:38:48.257Z,-0.64
2023-02-28T18:41:14.742Z,-0.77
2023-02-28T18:43:41.234Z,-0.64
2023-02-28T18:46:14.055Z,-0.71
2023-02-28T18:48:40.558Z,-0.86
2023-02-28T18:51:26.758Z,-0.94
2023-02-28T18:53:53.619Z,-0.95
2023-02-28T18:56:23.118Z,-0.83
2023-02-28T18:58:50.490Z,-1.11
2023-02-28T19:01:21.064Z,-1.09
2023-02-28T19:03:49.034Z,-1.30
2023-02-28T19:06:16.472Z,-1.14
2023-02-28T19:08:43.101Z,-1.24
2023-02-28T19:11:15.746Z,-1.31
2023-02-28T19:13:43.097Z,-1.23
2023-02-28T19:16:11.691Z,-1.55
2023-02-28T19:18:38.232Z,-1.42
2023-02-28T19:21:10.160Z,-1.27
2023-02-28T19:23:38.281Z,-1.27
2023-02-28T19:26:25.098Z,-1.10
2023-02-28T19:28:51.635Z,-0.98
2023-02-28T19:31:21.845Z,-0.97
2023-02-28T19:33:48.514Z,-0.91
2023-02-28T19:36:15.669Z,-0.87
2023-02-28T19:38:44.415Z,-1.00
2023-02-28T19:41:12.434Z,-1.11
2023-02-28T19:43:39.193Z,-1.11
2023-02-28T19:46:06.760Z,-1.11
2023-02-28T19:48:33.502Z,-1.17
2023-02-28T19:51:06.260Z,-1.14
2023-02-28T19:53:34.743Z,-1.21
2023-02-28T19:56:01.451Z,-1.22
2023-02-28T19:58:28.122Z,-1.19
2023-02-28T20:00:54.704Z,-1.20
2023-02-28T20:03:21.928Z,-1.22
2023-02-28T20:06:03.062Z,-1.19
2023-02-28T20:08:29.992Z,-1.15
2023-02-28T20:11:06.514Z,-1.19
2023-02-28T20:13:33.509Z,-1.20
2023-02-28T20:16:01.874Z,-1.15
2023-02-28T20:18:29.099Z,-1.19
2023-02-28T20:20:55.859Z,-1.21
2023-02-28T20:23:22.416Z,-1.12
2023-02-28T20:25:51.312Z,-1.21
2023-02-28T20:28:20.796Z,-1.11
2023-02-28T20:30:48.740Z,-1.26
2023-02-28T20:33:19.408Z,-1.31
2023-02-28T20:35:45.974Z,-1.34
2023-02-28T20:38:12.725Z,-1.37
2023-02-28T20:40:39.381Z,-1.44
2023-02-28T20:43:06.017Z,-1.34
2023-02-28T20:45:32.572Z,-1.28
2023-02-28T20:47:59.063Z,-1.32
2023-02-28T20:50:25.516Z,-1.30
2023-02-28T20:52:52.083Z,-1.34
2023-02-28T20:55:18.716Z,-1.26
2023-02-28T20:57:45.465Z,-1.35
2023-02-28T21:00:16.245Z,-1.48
2023-02-28T21:02:42.775Z,-1.45
2023-02-28T21:05:09.709Z,-1.36
2023-02-28T21:07:36.166Z,-1.41
2023-02-28T21:10:02.858Z,-1.48
2023-02-28T21:12:29.393Z,-1.75
2023-02-28T21:14:55.889Z,-1.67
2023-02-28T21:17:22.670Z,-1.70
2023-02-28T21:19:49.125Z,-1.66
2023-02-28T21:22:15.800Z,-1.96
2023-02-28T21:24:42.398Z,-1.89
2023-02-28T21:27:08.843Z,-1.94
2023-02-28T21:29:36.175Z,-1.96
2023-02-28T21:32:02.713Z,-2.02
2023-02-28T21:34:29.203Z,-2.01
2023-02-28T21:36:55.794Z,-1.96
2023-02-28T21:39:25.900Z,-1.98
2023-02-28T21:41:53.549Z,-2.24
2023-02-28T21:44:21.384Z,-2.15
2023-02-28T21:46:52.050Z,-2.22
2023-02-28T21:49:18.719Z,-2.29
2023-02-28T21:51:45.344Z,-2.36
2023-02-28T21:54:12.374Z,-2.39
2023-02-28T21:56:39.284Z,-2.33
2023-02-28T21:59:07.121Z,-2.09
2023-02-28T22:01:39.458Z,-2.18
2023-02-28T22:04:08.395Z,-2.13
2023-02-28T22:06:38.139Z,-2.05
2023-02-28T22:09:07.498Z,-2.12
2023-02-28T22:11:35.214Z,-2.12
2023-02-28T22:14:01.947Z,-2.14
2023-02-28T22:16:35.229Z,-2.14
2023-02-28T22:19:06.408Z,-2.21
2023-02-28T22:21:34.336Z,-2.18
2023-02-28T22:24:01.865Z,-2.22
2023-02-28T22:26:28.905Z,-2.17
2023-02-28T22:28:55.614Z,-2.23
2023-02-28T22:31:28.053Z,-2.21
2023-02-28T22:33:57.788Z,-2.19
2023-02-28T22:36:24.735Z,-2.19
2023-02-28T22:38:52.594Z,-2.32
2023-02-28T22:41:22.071Z,-2.25
2023-02-28T22:43:54.371Z,-2.40
2023-02-28T22:46:22.761Z,-2.29
2023-02-28T22:48:49.948Z,-2.21
2023-02-28T22:51:23.239Z,-2.20
2023-02-28T22:53:51.302Z,-2.26
2023-02-28T22:56:20.145Z,-2.14
2023-02-28T22:59:04.697Z,-2.15
2023-02-28T23:01:33.916Z,-2.24
2023-02-28T23:04:01.230Z,-2.24
2023-02-28T23:06:30.849Z,-2.32
2023-02-28T23:09:00.601Z,-2.25
2023-02-28T23:11:33.547Z,-2.24
2023-02-28T23:14:00.627Z,-2.20
2023-02-28T23:16:29.577Z,-2.25
2023-02-28T23:18:57.444Z,-2.17
2023-02-28T23:21:24.005Z,-2.21
2023-02-28T23:23:50.469Z,-2.18
2023-02-28T23:26:16.972Z,-2.13
2023-02-28T23:28:43.466Z,-2.01
2023-02-28T23:31:09.988Z,-2.19
2023-02-28T23:33:36.911Z,-2.14
2023-02-28T23:36:09.733Z,-2.20
2023-02-28T23:38:36.285Z,-2.13
2023-02-28T23:41:05.732Z,-2.16
2023-02-28T23:43:32.207Z,-2.18
2023-02-28T23:45:58.845Z,-2.21
2023-02-28T23:48:25.350Z,-2.23
2023-02-28T23:50:51.823Z,-2.23
2023-02-28T23:53:18.431Z,-2.19
2023-02-28T23:55:47.265Z,-2.22
2023-02-28T23:58:13.996Z,-2.19
